sensor_id;sensor_type;location;lat;lon;timestamp;P1;durP1;ratioP1;P2;durP2;ratioP2
7359;SDS011;3720;48.274;7.796;2022-08-01T00:00:16;2.25;;;2.00;;
7359;SDS011;3720;48.274;7.796;2022-08-01T00:02:48;3.58;;;1.70;;
7359;SDS011;3720;48.274;7.796;2022-08-01T00:05:21;2.67;;;2.00;;
7359;SDS011;3720;48.274;7.796;2022-08-01T00:07:53;4.78;;;1.90;;
7359;SDS011;3720;48.274;7.796;2022-08-01T00:10:25;3.10;;;1.90;;
7359;SDS011;3720;48.274;7.796;2022-08-01T00:12:58;2.67;;;2.13;;
7359;SDS011;3720;48.274;7.796;2022-08-01T00:15:30;2.42;;;1.85;;
7359;SDS011;3720;48.274;7.796;2022-08-01T00:18:03;2.35;;;1.67;;
7359;SDS011;3720;48.274;7.796;2022-08-01T00:20:35;2.42;;;2.15;;
7359;SDS011;3720;48.274;7.796;2022-08-01T00:23:07;2.90;;;2.05;;
7359;SDS011;3720;48.274;7.796;2022-08-01T00:25:40;2.33;;;2.00;;
7359;SDS011;3720;48.274;7.796;2022-08-01T00:28:13;3.97;;;1.98;;
7359;SDS011;3720;48.274;7.796;2022-08-01T00:30:46;2.42;;;1.90;;
7359;SDS011;3720;48.274;7.796;2022-08-01T00:33:18;2.55;;;1.90;;
7359;SDS011;3720;48.274;7.796;2022-08-01T00:35:50;2.65;;;2.00;;
7359;SDS011;3720;48.274;7.796;2022-08-01T00:38:21;2.58;;;2.10;;
7359;SDS011;3720;48.274;7.796;2022-08-01T00:40:53;2.50;;;1.90;;
7359;SDS011;3720;48.274;7.796;2022-08-01T00:43:27;3.28;;;2.20;;
7359;SDS011;3720;48.274;7.796;2022-08-01T00:45:59;3.88;;;2.20;;
7359;SDS011;3720;48.274;7.796;2022-08-01T00:48:32;3.67;;;1.98;;
7359;SDS011;3720;48.274;7.796;2022-08-01T00:51:04;3.13;;;2.28;;
7359;SDS011;3720;48.274;7.796;2022-08-01T00:53:36;2.10;;;1.90;;
7359;SDS011;3720;48.274;7.796;2022-08-01T00:56:08;4.90;;;2.10;;
7359;SDS011;3720;48.274;7.796;2022-08-01T00:58:43;3.13;;;2.20;;
7359;SDS011;3720;48.274;7.796;2022-08-01T01:01:15;3.47;;;2.28;;
7359;SDS011;3720;48.274;7.796;2022-08-01T01:03:48;4.68;;;2.13;;
7359;SDS011;3720;48.274;7.796;2022-08-01T01:06:27;3.67;;;2.28;;
7359;SDS011;3720;48.274;7.796;2022-08-01T01:09:19;2.42;;;2.05;;
7359;SDS011;3720;48.274;7.796;2022-08-01T01:12:01;2.92;;;2.25;;
7359;SDS011;3720;48.274;7.796;2022-08-01T01:14:44;2.70;;;2.17;;
7359;SDS011;3720;48.274;7.796;2022-08-01T01:17:25;4.47;;;2.30;;
7359;SDS011;3720;48.274;7.796;2022-08-01T01:20:04;2.92;;;2.28;;
7359;SDS011;3720;48.274;7.796;2022-08-01T01:25:41;5.40;;;2.60;;
7359;SDS011;3720;48.274;7.796;2022-08-01T01:28:27;2.42;;;2.22;;
7359;SDS011;3720;48.274;7.796;2022-08-01T01:31:06;2.67;;;2.30;;
7359;SDS011;3720;48.274;7.796;2022-08-01T01:33:40;2.75;;;2.38;;
7359;SDS011;3720;48.274;7.796;2022-08-01T01:36:12;2.75;;;2.28;;
7359;SDS011;3720;48.274;7.796;2022-08-01T01:38:45;3.60;;;2.40;;
7359;SDS011;3720;48.274;7.796;2022-08-01T01:41:19;3.97;;;2.35;;
7359;SDS011;3720;48.274;7.796;2022-08-01T01:43:52;2.40;;;2.20;;
7359;SDS011;3720;48.274;7.796;2022-08-01T01:46:26;7.78;;;2.50;;
7359;SDS011;3720;48.274;7.796;2022-08-01T01:49:01;2.87;;;2.57;;
7359;SDS011;3720;48.274;7.796;2022-08-01T01:51:34;2.67;;;2.30;;
7359;SDS011;3720;48.274;7.796;2022-08-01T01:54:06;3.20;;;2.42;;
7359;SDS011;3720;48.274;7.796;2022-08-01T01:56:40;4.00;;;2.60;;
7359;SDS011;3720;48.274;7.796;2022-08-01T01:59:20;3.83;;;2.78;;
7359;SDS011;3720;48.274;7.796;2022-08-01T02:01:57;3.22;;;2.60;;
7359;SDS011;3720;48.274;7.796;2022-08-01T02:04:32;4.20;;;2.47;;
7359;SDS011;3720;48.274;7.796;2022-08-01T02:07:08;2.85;;;2.25;;
7359;SDS011;3720;48.274;7.796;2022-08-01T02:09:41;2.92;;;2.50;;
7359;SDS011;3720;48.274;7.796;2022-08-01T02:12:14;2.95;;;2.60;;
7359;SDS011;3720;48.274;7.796;2022-08-01T02:14:49;2.72;;;2.47;;
7359;SDS011;3720;48.274;7.796;2022-08-01T02:17:24;4.47;;;2.63;;
7359;SDS011;3720;48.274;7.796;2022-08-01T02:19:57;4.47;;;2.45;;
7359;SDS011;3720;48.274;7.796;2022-08-01T02:22:30;4.05;;;2.60;;
7359;SDS011;3720;48.274;7.796;2022-08-01T02:25:07;3.35;;;2.53;;
7359;SDS011;3720;48.274;7.796;2022-08-01T02:27:45;3.30;;;2.60;;
7359;SDS011;3720;48.274;7.796;2022-08-01T02:30:25;3.35;;;2.40;;
7359;SDS011;3720;48.274;7.796;2022-08-01T02:33:04;5.10;;;2.63;;
7359;SDS011;3720;48.274;7.796;2022-08-01T02:35:41;2.90;;;2.70;;
7359;SDS011;3720;48.274;7.796;2022-08-01T02:38:15;4.20;;;2.70;;
7359;SDS011;3720;48.274;7.796;2022-08-01T02:40:50;3.75;;;2.85;;
7359;SDS011;3720;48.274;7.796;2022-08-01T02:43:24;3.33;;;2.80;;
7359;SDS011;3720;48.274;7.796;2022-08-01T02:46:00;4.95;;;3.10;;
7359;SDS011;3720;48.274;7.796;2022-08-01T02:48:35;4.95;;;3.00;;
7359;SDS011;3720;48.274;7.796;2022-08-01T02:51:09;4.20;;;2.95;;
7359;SDS011;3720;48.274;7.796;2022-08-01T02:53:43;3.10;;;2.80;;
7359;SDS011;3720;48.274;7.796;2022-08-01T02:56:16;2.70;;;2.50;;
7359;SDS011;3720;48.274;7.796;2022-08-01T02:58:50;8.13;;;2.97;;
7359;SDS011;3720;48.274;7.796;2022-08-01T03:01:23;3.15;;;2.72;;
7359;SDS011;3720;48.274;7.796;2022-08-01T03:03:57;3.63;;;3.00;;
7359;SDS011;3720;48.274;7.796;2022-08-01T03:06:29;6.85;;;3.05;;
7359;SDS011;3720;48.274;7.796;2022-08-01T03:09:03;3.10;;;2.80;;
7359;SDS011;3720;48.274;7.796;2022-08-01T03:11:37;3.50;;;2.80;;
7359;SDS011;3720;48.274;7.796;2022-08-01T03:14:12;4.45;;;3.00;;
7359;SDS011;3720;48.274;7.796;2022-08-01T03:16:46;5.07;;;3.00;;
7359;SDS011;3720;48.274;7.796;2022-08-01T03:19:21;4.10;;;3.15;;
7359;SDS011;3720;48.274;7.796;2022-08-01T03:21:57;5.18;;;3.20;;
7359;SDS011;3720;48.274;7.796;2022-08-01T03:24:31;4.05;;;3.20;;
7359;SDS011;3720;48.274;7.796;2022-08-01T03:27:05;4.95;;;3.20;;
7359;SDS011;3720;48.274;7.796;2022-08-01T03:29:38;3.88;;;3.15;;
7359;SDS011;3720;48.274;7.796;2022-08-01T03:32:12;4.75;;;3.35;;
7359;SDS011;3720;48.274;7.796;2022-08-01T03:34:47;3.58;;;2.97;;
7359;SDS011;3720;48.274;7.796;2022-08-01T03:37:21;4.82;;;3.13;;
7359;SDS011;3720;48.274;7.796;2022-08-01T03:39:58;4.15;;;3.30;;
7359;SDS011;3720;48.274;7.796;2022-08-01T03:42:34;4.45;;;3.25;;
7359;SDS011;3720;48.274;7.796;2022-08-01T03:45:14;5.57;;;3.33;;
7359;SDS011;3720;48.274;7.796;2022-08-01T03:47:51;4.90;;;3.15;;
7359;SDS011;3720;48.274;7.796;2022-08-01T03:50:28;3.70;;;3.25;;
7359;SDS011;3720;48.274;7.796;2022-08-01T03:53:04;4.97;;;3.40;;
7359;SDS011;3720;48.274;7.796;2022-08-01T03:55:37;4.47;;;3.30;;
7359;SDS011;3720;48.274;7.796;2022-08-01T03:58:13;3.78;;;3.08;;
7359;SDS011;3720;48.274;7.796;2022-08-01T04:00:45;4.93;;;3.20;;
7359;SDS011;3720;48.274;7.796;2022-08-01T04:03:19;4.65;;;3.10;;
7359;SDS011;3720;48.274;7.796;2022-08-01T04:05:53;4.85;;;3.20;;
7359;SDS011;3720;48.274;7.796;2022-08-01T04:08:33;4.78;;;3.42;;
7359;SDS011;3720;48.274;7.796;2022-08-01T04:11:07;4.85;;;3.38;;
7359;SDS011;3720;48.274;7.796;2022-08-01T04:13:39;4.88;;;3.50;;
7359;SDS011;3720;48.274;7.796;2022-08-01T04:16:12;3.55;;;3.15;;
7359;SDS011;3720;48.274;7.796;2022-08-01T04:18:44;4.03;;;3.10;;
7359;SDS011;3720;48.274;7.796;2022-08-01T04:21:18;4.55;;;3.40;;
7359;SDS011;3720;48.274;7.796;2022-08-01T04:23:54;5.80;;;3.30;;
7359;SDS011;3720;48.274;7.796;2022-08-01T04:26:29;3.35;;;3.05;;
7359;SDS011;3720;48.274;7.796;2022-08-01T04:29:03;4.25;;;3.10;;
7359;SDS011;3720;48.274;7.796;2022-08-01T04:31:38;3.47;;;3.08;;
7359;SDS011;3720;48.274;7.796;2022-08-01T04:34:14;3.55;;;3.25;;
7359;SDS011;3720;48.274;7.796;2022-08-01T04:36:50;3.63;;;3.13;;
7359;SDS011;3720;48.274;7.796;2022-08-01T04:39:24;4.80;;;2.88;;
7359;SDS011;3720;48.274;7.796;2022-08-01T04:42:00;4.03;;;3.00;;
7359;SDS011;3720;48.274;7.796;2022-08-01T04:44:35;4.93;;;2.95;;
7359;SDS011;3720;48.274;7.796;2022-08-01T04:47:07;6.55;;;3.03;;
7359;SDS011;3720;48.274;7.796;2022-08-01T04:49:41;8.55;;;3.10;;
7359;SDS011;3720;48.274;7.796;2022-08-01T04:52:17;10.38;;;3.13;;
7359;SDS011;3720;48.274;7.796;2022-08-01T04:54:49;12.98;;;3.35;;
7359;SDS011;3720;48.274;7.796;2022-08-01T04:57:22;9.05;;;3.25;;
7359;SDS011;3720;48.274;7.796;2022-08-01T04:59:54;6.40;;;3.35;;
7359;SDS011;3720;48.274;7.796;2022-08-01T05:02:28;8.02;;;3.20;;
7359;SDS011;3720;48.274;7.796;2022-08-01T05:05:01;7.55;;;3.60;;
7359;SDS011;3720;48.274;7.796;2022-08-01T05:07:37;5.38;;;3.10;;
7359;SDS011;3720;48.274;7.796;2022-08-01T05:10:09;5.93;;;3.60;;
7359;SDS011;3720;48.274;7.796;2022-08-01T05:12:41;6.70;;;2.85;;
7359;SDS011;3720;48.274;7.796;2022-08-01T05:15:13;6.32;;;3.10;;
7359;SDS011;3720;48.274;7.796;2022-08-01T05:17:46;7.00;;;3.47;;
7359;SDS011;3720;48.274;7.796;2022-08-01T05:20:18;4.57;;;3.35;;
7359;SDS011;3720;48.274;7.796;2022-08-01T05:22:52;7.80;;;3.17;;
7359;SDS011;3720;48.274;7.796;2022-08-01T05:25:24;6.18;;;4.15;;
7359;SDS011;3720;48.274;7.796;2022-08-01T05:27:56;5.93;;;3.78;;
7359;SDS011;3720;48.274;7.796;2022-08-01T05:30:28;8.65;;;3.50;;
7359;SDS011;3720;48.274;7.796;2022-08-01T05:33:00;5.85;;;3.90;;
7359;SDS011;3720;48.274;7.796;2022-08-01T05:35:31;8.85;;;4.05;;
7359;SDS011;3720;48.274;7.796;2022-08-01T05:38:05;5.82;;;3.70;;
7359;SDS011;3720;48.274;7.796;2022-08-01T05:40:37;6.20;;;3.90;;
7359;SDS011;3720;48.274;7.796;2022-08-01T05:43:09;6.03;;;3.65;;
7359;SDS011;3720;48.274;7.796;2022-08-01T05:45:41;6.90;;;4.10;;
7359;SDS011;3720;48.274;7.796;2022-08-01T05:48:12;5.28;;;3.50;;
7359;SDS011;3720;48.274;7.796;2022-08-01T05:50:45;7.47;;;3.95;;
7359;SDS011;3720;48.274;7.796;2022-08-01T05:53:19;7.57;;;4.57;;
7359;SDS011;3720;48.274;7.796;2022-08-01T05:55:51;5.55;;;4.13;;
7359;SDS011;3720;48.274;7.796;2022-08-01T05:58:23;8.50;;;4.35;;
7359;SDS011;3720;48.274;7.796;2022-08-01T06:00:55;7.60;;;4.30;;
7359;SDS011;3720;48.274;7.796;2022-08-01T06:03:27;8.55;;;4.10;;
7359;SDS011;3720;48.274;7.796;2022-08-01T06:06:01;5.13;;;3.80;;
7359;SDS011;3720;48.274;7.796;2022-08-01T06:08:34;8.40;;;3.88;;
7359;SDS011;3720;48.274;7.796;2022-08-01T06:11:07;6.18;;;3.80;;
7359;SDS011;3720;48.274;7.796;2022-08-01T06:13:39;4.65;;;3.47;;
7359;SDS011;3720;48.274;7.796;2022-08-01T06:16:11;4.63;;;3.20;;
7359;SDS011;3720;48.274;7.796;2022-08-01T06:18:43;7.13;;;3.80;;
7359;SDS011;3720;48.274;7.796;2022-08-01T06:21:15;7.43;;;3.92;;
7359;SDS011;3720;48.274;7.796;2022-08-01T06:23:48;6.88;;;4.43;;
7359;SDS011;3720;48.274;7.796;2022-08-01T06:26:20;7.93;;;4.00;;
7359;SDS011;3720;48.274;7.796;2022-08-01T06:28:53;8.18;;;4.00;;
7359;SDS011;3720;48.274;7.796;2022-08-01T06:31:25;6.05;;;4.35;;
7359;SDS011;3720;48.274;7.796;2022-08-01T06:33:57;7.13;;;3.90;;
7359;SDS011;3720;48.274;7.796;2022-08-01T06:36:29;6.13;;;3.97;;
7359;SDS011;3720;48.274;7.796;2022-08-01T06:39:03;6.30;;;4.00;;
7359;SDS011;3720;48.274;7.796;2022-08-01T06:41:35;5.88;;;4.00;;
7359;SDS011;3720;48.274;7.796;2022-08-01T06:44:07;5.38;;;3.70;;
7359;SDS011;3720;48.274;7.796;2022-08-01T06:46:39;6.28;;;4.28;;
7359;SDS011;3720;48.274;7.796;2022-08-01T06:49:11;5.72;;;3.92;;
7359;SDS011;3720;48.274;7.796;2022-08-01T06:51:43;5.30;;;4.10;;
7359;SDS011;3720;48.274;7.796;2022-08-01T06:54:17;6.78;;;4.28;;
7359;SDS011;3720;48.274;7.796;2022-08-01T06:56:49;7.43;;;3.97;;
7359;SDS011;3720;48.274;7.796;2022-08-01T06:59:21;6.15;;;4.00;;
7359;SDS011;3720;48.274;7.796;2022-08-01T07:01:54;8.95;;;4.20;;
7359;SDS011;3720;48.274;7.796;2022-08-01T07:04:26;4.22;;;3.83;;
7359;SDS011;3720;48.274;7.796;2022-08-01T07:06:58;5.13;;;4.00;;
7359;SDS011;3720;48.274;7.796;2022-08-01T07:09:32;5.60;;;4.07;;
7359;SDS011;3720;48.274;7.796;2022-08-01T07:12:04;4.72;;;3.67;;
7359;SDS011;3720;48.274;7.796;2022-08-01T07:14:37;7.60;;;4.03;;
7359;SDS011;3720;48.274;7.796;2022-08-01T07:17:09;5.43;;;3.47;;
7359;SDS011;3720;48.274;7.796;2022-08-01T07:19:41;4.68;;;3.95;;
7359;SDS011;3720;48.274;7.796;2022-08-01T07:22:13;7.38;;;4.05;;
7359;SDS011;3720;48.274;7.796;2022-08-01T07:24:47;6.43;;;3.78;;
7359;SDS011;3720;48.274;7.796;2022-08-01T07:27:19;3.85;;;3.20;;
7359;SDS011;3720;48.274;7.796;2022-08-01T07:29:51;4.13;;;2.90;;
7359;SDS011;3720;48.274;7.796;2022-08-01T07:32:23;3.28;;;2.72;;
7359;SDS011;3720;48.274;7.796;2022-08-01T07:34:55;4.60;;;2.60;;
7359;SDS011;3720;48.274;7.796;2022-08-01T07:37:27;4.25;;;2.30;;
7359;SDS011;3720;48.274;7.796;2022-08-01T07:40:01;2.47;;;2.08;;
7359;SDS011;3720;48.274;7.796;2022-08-01T07:42:35;4.75;;;2.28;;
7359;SDS011;3720;48.274;7.796;2022-08-01T07:45:07;2.97;;;2.30;;
7359;SDS011;3720;48.274;7.796;2022-08-01T07:47:40;2.70;;;2.30;;
7359;SDS011;3720;48.274;7.796;2022-08-01T07:50:12;2.60;;;2.20;;
7359;SDS011;3720;48.274;7.796;2022-08-01T07:52:44;4.25;;;2.47;;
7359;SDS011;3720;48.274;7.796;2022-08-01T07:55:17;2.33;;;1.90;;
7359;SDS011;3720;48.274;7.796;2022-08-01T07:57:49;3.47;;;1.98;;
7359;SDS011;3720;48.274;7.796;2022-08-01T08:00:21;2.38;;;1.80;;
7359;SDS011;3720;48.274;7.796;2022-08-01T08:02:54;3.00;;;1.73;;
7359;SDS011;3720;48.274;7.796;2022-08-01T08:05:28;2.15;;;1.85;;
7359;SDS011;3720;48.274;7.796;2022-08-01T08:08:00;2.13;;;1.92;;
7359;SDS011;3720;48.274;7.796;2022-08-01T08:10:34;4.35;;;2.13;;
7359;SDS011;3720;48.274;7.796;2022-08-01T08:13:06;3.60;;;1.83;;
7359;SDS011;3720;48.274;7.796;2022-08-01T08:15:38;3.22;;;2.10;;
7359;SDS011;3720;48.274;7.796;2022-08-01T08:18:10;4.72;;;2.20;;
7359;SDS011;3720;48.274;7.796;2022-08-01T08:20:42;6.40;;;2.30;;
7359;SDS011;3720;48.274;7.796;2022-08-01T08:23:15;3.25;;;1.85;;
7359;SDS011;3720;48.274;7.796;2022-08-01T08:26:05;4.40;;;2.20;;
7359;SDS011;3720;48.274;7.796;2022-08-01T08:28:37;4.18;;;2.20;;
7359;SDS011;3720;48.274;7.796;2022-08-01T08:31:09;4.70;;;2.33;;
7359;SDS011;3720;48.274;7.796;2022-08-01T08:33:41;3.90;;;2.35;;
7359;SDS011;3720;48.274;7.796;2022-08-01T08:36:13;3.95;;;2.50;;
7359;SDS011;3720;48.274;7.796;2022-08-01T08:38:45;6.13;;;2.90;;
7359;SDS011;3720;48.274;7.796;2022-08-01T08:41:18;3.53;;;2.70;;
7359;SDS011;3720;48.274;7.796;2022-08-01T08:43:50;7.05;;;2.80;;
7359;SDS011;3720;48.274;7.796;2022-08-01T08:46:23;3.53;;;3.10;;
7359;SDS011;3720;48.274;7.796;2022-08-01T08:48:58;3.97;;;2.75;;
7359;SDS011;3720;48.274;7.796;2022-08-01T08:51:31;3.72;;;2.70;;
7359;SDS011;3720;48.274;7.796;2022-08-01T08:54:07;6.70;;;3.05;;
7359;SDS011;3720;48.274;7.796;2022-08-01T08:56:44;3.28;;;2.83;;
7359;SDS011;3720;48.274;7.796;2022-08-01T08:59:18;3.17;;;2.50;;
7359;SDS011;3720;48.274;7.796;2022-08-01T09:01:51;3.45;;;2.67;;
7359;SDS011;3720;48.274;7.796;2022-08-01T09:04:24;4.43;;;2.92;;
7359;SDS011;3720;48.274;7.796;2022-08-01T09:06:56;4.55;;;2.70;;
7359;SDS011;3720;48.274;7.796;2022-08-01T09:09:29;4.00;;;2.97;;
7359;SDS011;3720;48.274;7.796;2022-08-01T09:12:02;5.18;;;3.20;;
7359;SDS011;3720;48.274;7.796;2022-08-01T09:14:34;3.67;;;2.83;;
7359;SDS011;3720;48.274;7.796;2022-08-01T09:17:16;3.58;;;2.60;;
7359;SDS011;3720;48.274;7.796;2022-08-01T09:19:48;3.55;;;2.95;;
7359;SDS011;3720;48.274;7.796;2022-08-01T09:22:22;4.35;;;2.85;;
7359;SDS011;3720;48.274;7.796;2022-08-01T09:24:56;4.75;;;2.85;;
7359;SDS011;3720;48.274;7.796;2022-08-01T09:27:34;5.25;;;2.80;;
7359;SDS011;3720;48.274;7.796;2022-08-01T09:30:09;4.30;;;2.97;;
7359;SDS011;3720;48.274;7.796;2022-08-01T09:32:52;5.28;;;3.00;;
7359;SDS011;3720;48.274;7.796;2022-08-01T09:35:26;5.70;;;3.30;;
7359;SDS011;3720;48.274;7.796;2022-08-01T09:38:12;6.30;;;3.15;;
7359;SDS011;3720;48.274;7.796;2022-08-01T09:40:50;4.15;;;3.00;;
7359;SDS011;3720;48.274;7.796;2022-08-01T09:43:25;5.85;;;3.28;;
7359;SDS011;3720;48.274;7.796;2022-08-01T09:45:58;5.20;;;3.20;;
7359;SDS011;3720;48.274;7.796;2022-08-01T09:48:35;4.70;;;3.08;;
7359;SDS011;3720;48.274;7.796;2022-08-01T09:51:09;3.72;;;3.13;;
7359;SDS011;3720;48.274;7.796;2022-08-01T09:53:42;5.50;;;3.15;;
7359;SDS011;3720;48.274;7.796;2022-08-01T09:56:16;5.65;;;3.20;;
7359;SDS011;3720;48.274;7.796;2022-08-01T09:58:50;5.03;;;3.20;;
7359;SDS011;3720;48.274;7.796;2022-08-01T10:01:24;5.75;;;3.20;;
7359;SDS011;3720;48.274;7.796;2022-08-01T10:04:04;4.35;;;2.95;;
7359;SDS011;3720;48.274;7.796;2022-08-01T10:06:38;6.07;;;3.08;;
7359;SDS011;3720;48.274;7.796;2022-08-01T10:09:13;4.13;;;2.80;;
7359;SDS011;3720;48.274;7.796;2022-08-01T10:11:45;3.85;;;3.10;;
7359;SDS011;3720;48.274;7.796;2022-08-01T10:14:19;4.80;;;3.22;;
7359;SDS011;3720;48.274;7.796;2022-08-01T10:16:51;5.15;;;2.97;;
7359;SDS011;3720;48.274;7.796;2022-08-01T10:19:27;4.47;;;3.30;;
7359;SDS011;3720;48.274;7.796;2022-08-01T10:22:00;4.35;;;3.10;;
7359;SDS011;3720;48.274;7.796;2022-08-01T10:24:34;3.22;;;2.90;;
7359;SDS011;3720;48.274;7.796;2022-08-01T10:27:08;3.40;;;3.10;;
7359;SDS011;3720;48.274;7.796;2022-08-01T10:29:51;3.15;;;2.80;;
7359;SDS011;3720;48.274;7.796;2022-08-01T10:32:26;3.97;;;3.13;;
7359;SDS011;3720;48.274;7.796;2022-08-01T10:34:59;5.00;;;3.20;;
7359;SDS011;3720;48.274;7.796;2022-08-01T10:37:33;4.10;;;3.10;;
7359;SDS011;3720;48.274;7.796;2022-08-01T10:40:06;3.65;;;2.90;;
7359;SDS011;3720;48.274;7.796;2022-08-01T10:42:39;3.47;;;3.00;;
7359;SDS011;3720;48.274;7.796;2022-08-01T10:45:13;3.00;;;2.78;;
7359;SDS011;3720;48.274;7.796;2022-08-01T10:47:48;3.78;;;2.83;;
7359;SDS011;3720;48.274;7.796;2022-08-01T10:50:29;3.83;;;2.97;;
7359;SDS011;3720;48.274;7.796;2022-08-01T10:53:09;3.30;;;3.00;;
7359;SDS011;3720;48.274;7.796;2022-08-01T10:55:50;3.90;;;3.03;;
7359;SDS011;3720;48.274;7.796;2022-08-01T10:58:24;4.28;;;2.80;;
7359;SDS011;3720;48.274;7.796;2022-08-01T11:01:16;3.45;;;2.90;;
7359;SDS011;3720;48.274;7.796;2022-08-01T11:03:57;4.47;;;2.88;;
7359;SDS011;3720;48.274;7.796;2022-08-01T11:06:36;3.85;;;3.00;;
7359;SDS011;3720;48.274;7.796;2022-08-01T11:09:21;8.13;;;2.60;;
7359;SDS011;3720;48.274;7.796;2022-08-01T11:11:56;3.50;;;2.85;;
7359;SDS011;3720;48.274;7.796;2022-08-01T11:14:31;5.03;;;2.80;;
7359;SDS011;3720;48.274;7.796;2022-08-01T11:17:31;6.03;;;2.78;;
7359;SDS011;3720;48.274;7.796;2022-08-01T11:20:08;3.40;;;2.78;;
7359;SDS011;3720;48.274;7.796;2022-08-01T11:28:43;3.25;;;2.63;;
7359;SDS011;3720;48.274;7.796;2022-08-01T11:31:29;2.97;;;2.70;;
7359;SDS011;3720;48.274;7.796;2022-08-01T11:34:04;4.20;;;3.30;;
7359;SDS011;3720;48.274;7.796;2022-08-01T11:36:37;4.05;;;2.78;;
7359;SDS011;3720;48.274;7.796;2022-08-01T11:39:15;4.55;;;2.88;;
7359;SDS011;3720;48.274;7.796;2022-08-01T11:41:48;4.85;;;3.00;;
7359;SDS011;3720;48.274;7.796;2022-08-01T11:44:21;4.63;;;2.90;;
7359;SDS011;3720;48.274;7.796;2022-08-01T11:46:58;2.88;;;2.40;;
7359;SDS011;3720;48.274;7.796;2022-08-01T11:52:26;2.75;;;2.55;;
7359;SDS011;3720;48.274;7.796;2022-08-01T11:55:04;4.28;;;2.95;;
7359;SDS011;3720;48.274;7.796;2022-08-01T11:57:38;6.18;;;3.10;;
7359;SDS011;3720;48.274;7.796;2022-08-01T12:00:11;5.93;;;3.10;;
7359;SDS011;3720;48.274;7.796;2022-08-01T12:02:45;4.95;;;2.83;;
7359;SDS011;3720;48.274;7.796;2022-08-01T12:05:28;4.20;;;2.90;;
7359;SDS011;3720;48.274;7.796;2022-08-01T12:08:03;7.18;;;3.35;;
7359;SDS011;3720;48.274;7.796;2022-08-01T12:10:35;7.07;;;2.90;;
7359;SDS011;3720;48.274;7.796;2022-08-01T12:13:08;5.55;;;3.20;;
7359;SDS011;3720;48.274;7.796;2022-08-01T12:15:40;4.38;;;2.90;;
7359;SDS011;3720;48.274;7.796;2022-08-01T12:18:13;3.50;;;3.20;;
7359;SDS011;3720;48.274;7.796;2022-08-01T12:20:46;4.70;;;3.22;;
7359;SDS011;3720;48.274;7.796;2022-08-01T12:23:18;3.00;;;2.53;;
7359;SDS011;3720;48.274;7.796;2022-08-01T12:25:51;3.15;;;2.80;;
7359;SDS011;3720;48.274;7.796;2022-08-01T12:28:24;4.72;;;2.88;;
7359;SDS011;3720;48.274;7.796;2022-08-01T12:30:56;3.25;;;2.60;;
7359;SDS011;3720;48.274;7.796;2022-08-01T12:33:28;4.65;;;3.05;;
7359;SDS011;3720;48.274;7.796;2022-08-01T12:36:02;3.05;;;2.75;;
7359;SDS011;3720;48.274;7.796;2022-08-01T12:38:34;3.15;;;2.80;;
7359;SDS011;3720;48.274;7.796;2022-08-01T12:41:09;2.78;;;2.50;;
7359;SDS011;3720;48.274;7.796;2022-08-01T12:43:42;2.83;;;2.63;;
7359;SDS011;3720;48.274;7.796;2022-08-01T12:46:14;4.18;;;2.90;;
7359;SDS011;3720;48.274;7.796;2022-08-01T12:48:47;3.63;;;2.80;;
7359;SDS011;3720;48.274;7.796;2022-08-01T12:51:20;3.28;;;2.60;;
7359;SDS011;3720;48.274;7.796;2022-08-01T12:53:53;7.97;;;3.10;;
7359;SDS011;3720;48.274;7.796;2022-08-01T12:56:30;4.15;;;3.10;;
7359;SDS011;3720;48.274;7.796;2022-08-01T13:01:51;3.40;;;3.10;;
7359;SDS011;3720;48.274;7.796;2022-08-01T13:04:24;4.65;;;3.17;;
7359;SDS011;3720;48.274;7.796;2022-08-01T13:06:57;3.85;;;2.90;;
7359;SDS011;3720;48.274;7.796;2022-08-01T13:09:29;4.63;;;2.63;;
7359;SDS011;3720;48.274;7.796;2022-08-01T13:12:07;4.35;;;2.97;;
7359;SDS011;3720;48.274;7.796;2022-08-01T13:14:39;3.38;;;3.05;;
7359;SDS011;3720;48.274;7.796;2022-08-01T13:17:11;3.63;;;2.70;;
7359;SDS011;3720;48.274;7.796;2022-08-01T13:20:01;4.25;;;3.15;;
7359;SDS011;3720;48.274;7.796;2022-08-01T13:22:36;3.40;;;2.92;;
7359;SDS011;3720;48.274;7.796;2022-08-01T13:25:09;3.83;;;2.80;;
7359;SDS011;3720;48.274;7.796;2022-08-01T13:27:42;9.82;;;7.00;;
7359;SDS011;3720;48.274;7.796;2022-08-01T13:30:14;6.20;;;5.30;;
7359;SDS011;3720;48.274;7.796;2022-08-01T13:32:56;8.98;;;7.10;;
7359;SDS011;3720;48.274;7.796;2022-08-01T13:35:29;5.03;;;3.13;;
7359;SDS011;3720;48.274;7.796;2022-08-01T13:38:02;6.78;;;3.10;;
7359;SDS011;3720;48.274;7.796;2022-08-01T13:40:34;4.93;;;3.70;;
7359;SDS011;3720;48.274;7.796;2022-08-01T13:43:06;6.90;;;3.08;;
7359;SDS011;3720;48.274;7.796;2022-08-01T13:45:39;5.32;;;2.85;;
7359;SDS011;3720;48.274;7.796;2022-08-01T13:48:12;3.85;;;2.88;;
7359;SDS011;3720;48.274;7.796;2022-08-01T13:50:44;3.70;;;2.97;;
7359;SDS011;3720;48.274;7.796;2022-08-01T13:53:17;3.38;;;3.08;;
7359;SDS011;3720;48.274;7.796;2022-08-01T13:55:50;4.00;;;2.90;;
7359;SDS011;3720;48.274;7.796;2022-08-01T13:58:22;4.88;;;2.83;;
7359;SDS011;3720;48.274;7.796;2022-08-01T14:00:54;3.42;;;3.13;;
7359;SDS011;3720;48.274;7.796;2022-08-01T14:03:26;3.97;;;2.92;;
7359;SDS011;3720;48.274;7.796;2022-08-01T14:05:58;3.42;;;3.13;;
7359;SDS011;3720;48.274;7.796;2022-08-01T14:08:32;5.85;;;3.20;;
7359;SDS011;3720;48.274;7.796;2022-08-01T14:11:04;4.60;;;2.90;;
7359;SDS011;3720;48.274;7.796;2022-08-01T14:13:36;4.53;;;2.80;;
7359;SDS011;3720;48.274;7.796;2022-08-01T14:16:10;3.15;;;2.72;;
7359;SDS011;3720;48.274;7.796;2022-08-01T14:18:42;4.93;;;2.90;;
7359;SDS011;3720;48.274;7.796;2022-08-01T14:21:14;3.50;;;2.80;;
7359;SDS011;3720;48.274;7.796;2022-08-01T14:23:47;3.72;;;3.17;;
7359;SDS011;3720;48.274;7.796;2022-08-01T14:26:19;3.00;;;2.70;;
7359;SDS011;3720;48.274;7.796;2022-08-01T14:28:51;4.40;;;2.95;;
7359;SDS011;3720;48.274;7.796;2022-08-01T14:31:23;4.20;;;2.72;;
7359;SDS011;3720;48.274;7.796;2022-08-01T14:33:55;3.25;;;2.55;;
7359;SDS011;3720;48.274;7.796;2022-08-01T14:36:27;3.10;;;2.40;;
7359;SDS011;3720;48.274;7.796;2022-08-01T14:39:00;3.40;;;2.78;;
7359;SDS011;3720;48.274;7.796;2022-08-01T14:41:33;4.13;;;2.58;;
7359;SDS011;3720;48.274;7.796;2022-08-01T14:44:04;2.63;;;2.40;;
7359;SDS011;3720;48.274;7.796;2022-08-01T14:46:37;4.03;;;2.72;;
7359;SDS011;3720;48.274;7.796;2022-08-01T14:49:09;5.10;;;2.42;;
7359;SDS011;3720;48.274;7.796;2022-08-01T14:51:41;3.55;;;2.35;;
7359;SDS011;3720;48.274;7.796;2022-08-01T14:54:14;2.90;;;2.50;;
7359;SDS011;3720;48.274;7.796;2022-08-01T14:56:46;5.00;;;2.53;;
7359;SDS011;3720;48.274;7.796;2022-08-01T14:59:18;4.22;;;2.88;;
7359;SDS011;3720;48.274;7.796;2022-08-01T15:01:51;3.20;;;2.70;;
7359;SDS011;3720;48.274;7.796;2022-08-01T15:04:23;3.78;;;2.60;;
7359;SDS011;3720;48.274;7.796;2022-08-01T15:06:55;6.53;;;2.90;;
7359;SDS011;3720;48.274;7.796;2022-08-01T15:09:29;3.03;;;2.60;;
7359;SDS011;3720;48.274;7.796;2022-08-01T15:12:01;2.90;;;2.60;;
7359;SDS011;3720;48.274;7.796;2022-08-01T15:14:33;2.88;;;2.40;;
7359;SDS011;3720;48.274;7.796;2022-08-01T15:17:21;3.15;;;2.50;;
7359;SDS011;3720;48.274;7.796;2022-08-01T15:19:55;3.33;;;2.60;;
7359;SDS011;3720;48.274;7.796;2022-08-01T15:22:28;2.78;;;2.30;;
7359;SDS011;3720;48.274;7.796;2022-08-01T15:25:02;2.92;;;2.40;;
7359;SDS011;3720;48.274;7.796;2022-08-01T15:27:34;3.10;;;2.35;;
7359;SDS011;3720;48.274;7.796;2022-08-01T15:30:07;2.20;;;1.92;;
7359;SDS011;3720;48.274;7.796;2022-08-01T15:32:39;3.55;;;2.22;;
7359;SDS011;3720;48.274;7.796;2022-08-01T15:35:11;3.42;;;2.10;;
7359;SDS011;3720;48.274;7.796;2022-08-01T15:37:44;2.80;;;2.20;;
7359;SDS011;3720;48.274;7.796;2022-08-01T15:40:17;2.90;;;2.00;;
7359;SDS011;3720;48.274;7.796;2022-08-01T15:42:49;6.47;;;2.05;;
7359;SDS011;3720;48.274;7.796;2022-08-01T15:45:22;3.58;;;2.05;;
7359;SDS011;3720;48.274;7.796;2022-08-01T15:47:55;2.35;;;2.00;;
7359;SDS011;3720;48.274;7.796;2022-08-01T15:50:27;5.43;;;2.00;;
7359;SDS011;3720;48.274;7.796;2022-08-01T15:52:59;4.93;;;2.00;;
7359;SDS011;3720;48.274;7.796;2022-08-01T15:55:35;2.88;;;1.70;;
7359;SDS011;3720;48.274;7.796;2022-08-01T15:58:08;3.28;;;1.70;;
7359;SDS011;3720;48.274;7.796;2022-08-01T16:00:40;2.90;;;2.00;;
7359;SDS011;3720;48.274;7.796;2022-08-01T16:03:12;3.40;;;1.73;;
7359;SDS011;3720;48.274;7.796;2022-08-01T16:05:44;3.50;;;1.63;;
7359;SDS011;3720;48.274;7.796;2022-08-01T16:08:16;3.35;;;1.85;;
7359;SDS011;3720;48.274;7.796;2022-08-01T16:10:49;5.28;;;1.63;;